createdAt,value
2018-03-07T00:01:10.601Z,12.25
2018-03-07T00:03:38.535Z,12.17
2018-03-07T00:06:06.586Z,12.46
2018-03-07T00:08:34.542Z,12.26
2018-03-07T00:11:02.509Z,12.10
2018-03-07T00:13:30.462Z,12.41
2018-03-07T00:15:58.346Z,11.81
2018-03-07T00:18:26.262Z,11.56
2018-03-07T00:20:54.197Z,11.66
2018-03-07T00:23:22.715Z,11.85
2018-03-07T00:25:50.642Z,11.75
2018-03-07T00:28:18.742Z,11.39
2018-03-07T00:30:46.699Z,11.81
2018-03-07T00:33:14.686Z,11.56
2018-03-07T00:35:42.625Z,11.93
2018-03-07T00:38:10.550Z,11.90
2018-03-07T00:40:38.429Z,12.27
2018-03-07T00:43:06.371Z,12.53
2018-03-07T00:45:34.294Z,12.70
2018-03-07T00:48:02.280Z,12.90
2018-03-07T00:50:30.214Z,12.84
2018-03-07T00:52:58.150Z,12.79
2018-03-07T00:55:26.077Z,12.96
2018-03-07T00:57:54.069Z,13.09
2018-03-07T01:00:22.057Z,12.99
2018-03-07T01:02:49.979Z,13.18
2018-03-07T01:05:17.885Z,13.22
2018-03-07T01:07:45.869Z,12.94
2018-03-07T01:10:13.785Z,13.17
2018-03-07T01:12:41.768Z,13.08
2018-03-07T01:15:09.692Z,13.11
2018-03-07T01:17:37.651Z,13.20
2018-03-07T01:20:05.615Z,13.19
2018-03-07T01:22:33.636Z,13.17
2018-03-07T01:25:02.016Z,13.35
2018-03-07T01:27:29.984Z,13.34
2018-03-07T01:29:57.871Z,13.23
2018-03-07T01:32:25.829Z,13.37
2018-03-07T01:34:53.728Z,13.35
2018-03-07T01:37:21.673Z,13.38
2018-03-07T01:39:49.752Z,13.18
2018-03-07T01:42:17.608Z,13.06
2018-03-07T01:44:45.500Z,13.25
2018-03-07T01:47:13.453Z,13.15
2018-03-07T01:49:41.357Z,13.07
2018-03-07T01:52:09.354Z,13.05
2018-03-07T01:54:37.272Z,12.82
2018-03-07T01:57:05.192Z,12.79
2018-03-07T01:59:33.087Z,12.75
2018-03-07T02:02:01.032Z,12.33
2018-03-07T02:04:29.049Z,12.57
2018-03-07T02:06:56.941Z,12.56
2018-03-07T02:09:24.949Z,12.56
2018-03-07T02:11:52.921Z,12.64
2018-03-07T02:14:20.842Z,12.32
2018-03-07T02:16:48.754Z,12.52
2018-03-07T02:19:16.829Z,12.45
2018-03-07T02:21:44.730Z,12.87
2018-03-07T02:24:12.646Z,12.72
2018-03-07T02:26:40.817Z,12.52
2018-03-07T02:29:08.681Z,12.81
2018-03-07T02:31:36.613Z,12.97
2018-03-07T02:34:04.595Z,12.91
2018-03-07T02:36:33.613Z,12.82
2018-03-07T02:39:01.576Z,13.00
2018-03-07T02:41:29.496Z,12.91
2018-03-07T02:43:57.449Z,12.82
2018-03-07T02:46:25.446Z,13.01
2018-03-07T02:48:53.476Z,12.21
2018-03-07T02:51:21.468Z,12.63
2018-03-07T02:53:49.386Z,12.54
2018-03-07T02:56:17.340Z,12.79
2018-03-07T02:58:45.353Z,12.42
2018-03-07T03:01:13.267Z,12.40
2018-03-07T03:03:41.202Z,12.76
2018-03-07T03:06:09.207Z,12.62
2018-03-07T03:08:37.134Z,12.25
2018-03-07T03:11:05.069Z,12.31
2018-03-07T03:13:33.064Z,12.47
2018-03-07T03:16:01.076Z,12.52
2018-03-07T03:18:28.976Z,12.71
2018-03-07T03:20:56.960Z,12.50
2018-03-07T03:23:24.913Z,12.64
2018-03-07T03:25:52.870Z,12.71
2018-03-07T03:28:21.147Z,12.80
2018-03-07T03:30:49.117Z,12.09
2018-03-07T03:33:17.021Z,12.27
2018-03-07T03:35:45.048Z,11.65
2018-03-07T03:38:12.924Z,11.80
2018-03-07T03:40:40.913Z,11.55
2018-03-07T03:43:08.861Z,11.91
2018-03-07T03:45:36.792Z,12.10
2018-03-07T03:48:04.773Z,12.19
2018-03-07T03:50:32.780Z,11.94
2018-03-07T03:53:00.711Z,11.51
2018-03-07T03:55:28.621Z,11.77
2018-03-07T03:57:56.613Z,11.63
2018-03-07T04:00:24.526Z,11.70
2018-03-07T04:02:52.477Z,11.86
2018-03-07T04:05:20.448Z,12.01
2018-03-07T04:07:48.348Z,11.94
2018-03-07T04:10:16.321Z,11.68
2018-03-07T04:12:44.270Z,11.04
2018-03-07T04:15:12.191Z,10.47
2018-03-07T04:17:40.137Z,10.80
2018-03-07T04:20:08.063Z,11.34
2018-03-07T04:22:36.138Z,11.60
2018-03-07T04:25:04.124Z,11.80
2018-03-07T04:27:32.148Z,11.90
2018-03-07T04:30:00.469Z,11.27
2018-03-07T04:32:28.426Z,11.17
2018-03-07T04:34:56.357Z,10.80
2018-03-07T04:37:24.275Z,11.15
2018-03-07T04:39:52.225Z,11.18
2018-03-07T04:42:20.162Z,10.98
2018-03-07T04:44:48.112Z,11.14
2018-03-07T04:47:16.077Z,11.34
2018-03-07T04:49:44.032Z,11.72
2018-03-07T04:52:11.982Z,11.13
2018-03-07T04:54:39.814Z,11.33
2018-03-07T04:57:07.729Z,11.22
2018-03-07T04:59:35.573Z,11.33
2018-03-07T05:02:03.496Z,11.67
2018-03-07T05:04:31.436Z,11.68
2018-03-07T05:06:59.401Z,11.71
2018-03-07T05:09:27.382Z,11.28
2018-03-07T05:11:55.347Z,11.46
2018-03-07T05:14:23.269Z,11.18
2018-03-07T05:16:51.217Z,11.52
2018-03-07T05:19:19.173Z,11.49
2018-03-07T05:21:47.180Z,11.65
2018-03-07T05:24:15.157Z,11.53
2018-03-07T05:26:43.143Z,11.75
2018-03-07T05:29:11.129Z,11.84
2018-03-07T05:31:39.581Z,11.49
2018-03-07T05:34:07.592Z,11.73
2018-03-07T05:36:35.601Z,11.77
2018-03-07T05:39:03.662Z,11.87
2018-03-07T05:41:31.618Z,11.69
2018-03-07T05:43:59.614Z,12.09
2018-03-07T05:46:27.609Z,11.63
2018-03-07T05:48:55.590Z,12.10
2018-03-07T05:51:23.549Z,12.48
2018-03-07T05:53:51.465Z,12.67
2018-03-07T05:56:19.570Z,12.35
2018-03-07T05:58:47.585Z,11.60
2018-03-07T06:01:15.506Z,11.82
2018-03-07T06:03:43.436Z,12.11
2018-03-07T06:06:11.375Z,12.62
2018-03-07T06:08:39.294Z,11.95
2018-03-07T06:11:07.231Z,12.40
2018-03-07T06:13:35.130Z,12.29
2018-03-07T06:16:03.025Z,12.00
2018-03-07T06:18:30.902Z,13.05
2018-03-07T06:20:58.878Z,13.45
2018-03-07T06:23:26.789Z,14.43
2018-03-07T06:25:54.781Z,14.65
2018-03-07T06:28:22.751Z,14.78
2018-03-07T06:30:50.667Z,14.82
2018-03-07T06:33:18.988Z,14.81
2018-03-07T06:35:46.972Z,14.66
2018-03-07T06:38:14.863Z,14.95
2018-03-07T06:40:42.866Z,14.70
2018-03-07T06:43:10.824Z,14.57
2018-03-07T06:45:38.781Z,14.66
2018-03-07T06:48:06.738Z,13.79
2018-03-07T06:50:34.674Z,14.53
2018-03-07T06:53:02.697Z,14.35
2018-03-07T06:55:30.603Z,14.19
2018-03-07T06:57:58.505Z,14.55
2018-03-07T07:00:26.397Z,15.23
2018-03-07T07:02:54.343Z,16.07
2018-03-07T07:05:22.255Z,16.35
2018-03-07T07:07:50.218Z,15.85
2018-03-07T07:10:18.222Z,15.88
2018-03-07T07:12:46.214Z,16.57
2018-03-07T07:15:14.158Z,17.22
2018-03-07T07:17:42.109Z,17.14
2018-03-07T07:20:10.034Z,16.78
2018-03-07T07:22:38.470Z,16.43
2018-03-07T07:25:06.433Z,16.32
2018-03-07T07:27:34.345Z,15.80
2018-03-07T07:30:02.378Z,16.46
2018-03-07T07:32:30.267Z,16.96
2018-03-07T07:34:58.585Z,17.28
2018-03-07T07:37:26.494Z,17.07
2018-03-07T07:39:54.397Z,17.51
2018-03-07T07:42:22.361Z,17.15
2018-03-07T07:44:50.302Z,16.94
2018-03-07T07:47:18.808Z,17.31
2018-03-07T07:49:46.822Z,17.45
2018-03-07T07:52:14.861Z,18.11
2018-03-07T07:54:42.811Z,17.31
2018-03-07T07:57:10.728Z,18.27
2018-03-07T07:59:38.638Z,17.88
2018-03-07T08:02:06.671Z,18.40
2018-03-07T08:04:34.606Z,18.78
2018-03-07T08:07:02.548Z,18.53
2018-03-07T08:09:30.437Z,18.24
2018-03-07T08:11:58.413Z,17.78
2018-03-07T08:14:26.305Z,17.77
2018-03-07T08:16:54.248Z,17.71
2018-03-07T08:19:22.173Z,18.48
2018-03-07T08:21:50.128Z,18.47
2018-03-07T08:24:18.080Z,18.03
2018-03-07T08:26:46.009Z,17.64
2018-03-07T08:29:14.162Z,17.03
2018-03-07T08:31:42.160Z,17.93
2018-03-07T08:34:10.134Z,19.30
2018-03-07T08:36:38.541Z,19.84
2018-03-07T08:39:06.486Z,19.95
2018-03-07T08:41:34.504Z,19.88
2018-03-07T08:44:02.502Z,19.34
2018-03-07T08:46:30.452Z,20.80
2018-03-07T08:48:58.414Z,20.67
2018-03-07T08:51:26.540Z,19.78
2018-03-07T08:53:54.510Z,20.44
2018-03-07T08:56:22.513Z,20.33
2018-03-07T08:58:50.573Z,20.97
2018-03-07T09:01:18.676Z,22.43
2018-03-07T09:03:46.615Z,23.10
2018-03-07T09:06:14.589Z,23.22
2018-03-07T09:08:42.573Z,23.40
2018-03-07T09:11:10.533Z,23.65
2018-03-07T09:13:38.484Z,22.75
2018-03-07T09:16:06.436Z,22.14
2018-03-07T09:18:34.402Z,22.19
2018-03-07T09:21:02.302Z,21.57
2018-03-07T09:23:30.252Z,21.48
2018-03-07T09:25:58.214Z,22.58
2018-03-07T09:28:26.080Z,22.28
2018-03-07T09:30:54.050Z,22.40
2018-03-07T09:33:22.033Z,21.69
2018-03-07T09:35:50.020Z,22.96
2018-03-07T09:38:18.466Z,23.51
2018-03-07T09:40:46.393Z,23.89
2018-03-07T09:43:14.321Z,23.94
2018-03-07T09:45:42.282Z,24.72
2018-03-07T09:48:10.181Z,25.32
2018-03-07T09:50:38.104Z,24.62
2018-03-07T09:53:06.010Z,24.77
2018-03-07T09:55:33.948Z,26.37
2018-03-07T09:58:01.956Z,27.16
2018-03-07T10:00:29.946Z,26.65
2018-03-07T10:02:57.972Z,25.51
2018-03-07T10:05:26.070Z,25.62
2018-03-07T10:07:54.005Z,25.52
2018-03-07T10:10:21.977Z,24.47
2018-03-07T10:12:49.967Z,23.86
2018-03-07T10:15:17.965Z,23.30
2018-03-07T10:17:45.969Z,22.55
2018-03-07T10:20:13.878Z,22.87
2018-03-07T10:22:41.799Z,23.72
2018-03-07T10:25:09.778Z,24.00
2018-03-07T10:27:37.727Z,24.43
2018-03-07T10:30:05.741Z,25.46
2018-03-07T10:32:33.737Z,25.24
2018-03-07T10:35:01.679Z,24.92
2018-03-07T10:37:29.756Z,23.03
2018-03-07T10:39:58.212Z,24.45
2018-03-07T10:42:26.196Z,24.87
2018-03-07T10:44:54.160Z,23.85
2018-03-07T10:47:22.147Z,23.03
2018-03-07T10:49:50.166Z,21.35
2018-03-07T10:52:18.064Z,21.15
2018-03-07T10:54:46.107Z,20.52
2018-03-07T10:57:14.048Z,20.83
2018-03-07T10:59:42.075Z,22.04
2018-03-07T11:02:10.065Z,22.53
2018-03-07T11:04:38.099Z,22.58
2018-03-07T11:07:06.229Z,22.65
2018-03-07T11:09:34.184Z,20.97
2018-03-07T11:12:02.152Z,20.84
2018-03-07T11:14:30.092Z,20.92
2018-03-07T11:16:58.138Z,20.64
2018-03-07T11:19:26.084Z,20.72
2018-03-07T11:21:54.016Z,23.04
2018-03-07T11:24:22.000Z,22.78
2018-03-07T11:26:49.933Z,21.86
2018-03-07T11:29:17.842Z,21.28
2018-03-07T11:31:45.913Z,22.96
2018-03-07T11:34:13.881Z,23.16
2018-03-07T11:36:41.868Z,22.46
2018-03-07T11:39:09.842Z,21.62
2018-03-07T11:41:38.232Z,21.78
2018-03-07T11:44:06.290Z,21.66
2018-03-07T11:46:34.294Z,21.56
2018-03-07T11:49:02.230Z,20.49
2018-03-07T11:51:30.186Z,20.68
2018-03-07T11:53:58.108Z,21.52
2018-03-07T11:56:26.121Z,21.55
2018-03-07T11:58:54.302Z,22.78
2018-03-07T12:01:22.263Z,24.21
2018-03-07T12:03:50.230Z,24.40
2018-03-07T12:06:18.202Z,21.61
2018-03-07T12:08:46.163Z,21.76
2018-03-07T12:11:14.075Z,22.18
2018-03-07T12:13:42.080Z,21.19
2018-03-07T12:16:10.010Z,23.24
2018-03-07T12:18:38.030Z,23.45
2018-03-07T12:21:05.985Z,22.74
2018-03-07T12:23:33.945Z,22.91
2018-03-07T12:26:01.966Z,23.68
2018-03-07T12:28:29.950Z,22.98
2018-03-07T12:30:57.902Z,23.74
2018-03-07T12:33:26.779Z,24.36
2018-03-07T12:35:54.770Z,24.81
2018-03-07T12:38:22.688Z,24.89
2018-03-07T12:40:53.435Z,26.24
2018-03-07T12:43:21.795Z,25.74
2018-03-07T12:45:50.072Z,25.30
2018-03-07T12:48:18.038Z,25.58
2018-03-07T12:50:45.964Z,25.82
2018-03-07T12:53:13.923Z,26.14
2018-03-07T12:55:41.958Z,26.27
2018-03-07T12:58:09.954Z,27.08
2018-03-07T13:00:37.879Z,27.65
2018-03-07T13:03:05.865Z,28.34
2018-03-07T13:05:33.822Z,29.07
2018-03-07T13:08:01.801Z,28.93
2018-03-07T13:10:29.748Z,29.39
2018-03-07T13:12:57.712Z,29.11
2018-03-07T13:15:25.689Z,29.39
2018-03-07T13:17:53.705Z,29.50
2018-03-07T13:20:21.582Z,27.70
2018-03-07T13:22:49.542Z,28.42
2018-03-07T13:25:17.524Z,29.25
2018-03-07T13:27:45.506Z,28.83
2018-03-07T13:30:13.585Z,27.71
2018-03-07T13:32:41.518Z,27.32
2018-03-07T13:35:09.406Z,28.13
2018-03-07T13:37:37.448Z,28.54
2018-03-07T13:40:05.418Z,28.45
2018-03-07T13:42:33.385Z,28.65
2018-03-07T13:45:01.640Z,27.64
2018-03-07T13:47:29.676Z,29.39
2018-03-07T13:49:57.637Z,25.97
2018-03-07T13:52:25.599Z,26.06
2018-03-07T13:54:53.530Z,26.39
2018-03-07T13:57:21.476Z,26.49
2018-03-07T13:59:49.416Z,24.99
2018-03-07T14:02:17.368Z,25.88
2018-03-07T14:04:45.313Z,24.93
2018-03-07T14:07:13.269Z,23.92
2018-03-07T14:09:41.238Z,25.22
2018-03-07T14:12:09.177Z,24.24
2018-03-07T14:14:37.182Z,24.46
2018-03-07T14:17:05.148Z,23.27
2018-03-07T14:19:33.139Z,21.46
2018-03-07T14:22:01.088Z,22.32
2018-03-07T14:24:28.991Z,22.64
2018-03-07T14:26:56.947Z,22.70
2018-03-07T14:29:24.884Z,22.42
2018-03-07T14:31:52.904Z,23.07
2018-03-07T14:34:20.871Z,22.47
2018-03-07T14:36:48.798Z,22.34
2018-03-07T14:39:16.811Z,23.01
2018-03-07T14:41:44.785Z,22.05
2018-03-07T14:44:12.732Z,22.68
2018-03-07T14:46:41.048Z,21.91
2018-03-07T14:49:09.038Z,22.43
2018-03-07T14:51:36.925Z,22.89
2018-03-07T14:54:04.919Z,23.21
2018-03-07T14:56:32.793Z,23.21
2018-03-07T14:59:00.754Z,22.74
2018-03-07T15:01:28.652Z,22.91
2018-03-07T15:03:56.521Z,22.31
2018-03-07T15:06:24.444Z,22.62
2018-03-07T15:08:52.364Z,22.40
2018-03-07T15:11:20.320Z,22.11
2018-03-07T15:13:48.241Z,21.01
2018-03-07T15:16:16.181Z,20.98
2018-03-07T15:18:44.171Z,20.67
2018-03-07T15:21:12.090Z,20.85
2018-03-07T15:23:40.083Z,20.63
2018-03-07T15:26:08.057Z,20.74
2018-03-07T15:28:35.964Z,20.35
2018-03-07T15:31:04.023Z,20.08
2018-03-07T15:33:31.912Z,19.94
2018-03-07T15:35:59.853Z,19.43
2018-03-07T15:38:27.802Z,18.90
2018-03-07T15:40:55.715Z,18.70
2018-03-07T15:43:23.657Z,19.23
2018-03-07T15:45:51.631Z,18.54
2018-03-07T15:48:19.817Z,18.73
2018-03-07T15:50:47.858Z,18.44
2018-03-07T15:53:15.789Z,18.54
2018-03-07T15:55:43.758Z,18.36
2018-03-07T15:58:11.818Z,18.64
2018-03-07T16:00:39.737Z,18.42
2018-03-07T16:03:07.701Z,18.05
2018-03-07T16:05:35.602Z,18.15
2018-03-07T16:08:03.521Z,18.29
2018-03-07T16:10:31.470Z,18.34
2018-03-07T16:12:59.377Z,17.77
2018-03-07T16:15:27.394Z,17.36
2018-03-07T16:17:55.563Z,17.29
2018-03-07T16:20:23.527Z,16.93
2018-03-07T16:22:51.529Z,16.32
2018-03-07T16:25:19.457Z,16.75
2018-03-07T16:27:47.347Z,16.95
2018-03-07T16:30:15.320Z,16.91
2018-03-07T16:32:43.349Z,16.75
2018-03-07T16:35:11.378Z,16.22
2018-03-07T16:37:39.326Z,15.99
2018-03-07T16:40:07.258Z,15.75
2018-03-07T16:42:35.212Z,15.54
2018-03-07T16:45:03.142Z,15.39
2018-03-07T16:47:31.057Z,15.09
2018-03-07T16:49:59.473Z,15.15
2018-03-07T16:52:27.449Z,15.34
2018-03-07T16:54:55.371Z,15.17
2018-03-07T16:57:23.333Z,15.20
2018-03-07T16:59:51.313Z,15.18
2018-03-07T17:02:19.288Z,15.10
2018-03-07T17:04:47.233Z,15.18
2018-03-07T17:07:15.159Z,15.22
2018-03-07T17:09:43.080Z,15.45
2018-03-07T17:12:11.041Z,15.67
2018-03-07T17:14:38.981Z,15.69
2018-03-07T17:17:06.923Z,15.52
2018-03-07T17:19:34.838Z,15.23
2018-03-07T17:22:02.708Z,15.54
2018-03-07T17:24:30.625Z,15.51
2018-03-07T17:26:58.659Z,15.55
2018-03-07T17:29:26.648Z,15.28
2018-03-07T17:31:54.552Z,15.30
2018-03-07T17:34:22.474Z,14.71
2018-03-07T17:36:50.433Z,14.80
2018-03-07T17:39:18.394Z,14.77
2018-03-07T17:41:46.307Z,14.61
2018-03-07T17:44:14.397Z,14.55
2018-03-07T17:46:42.392Z,15.00
2018-03-07T17:49:10.331Z,15.18
2018-03-07T17:51:38.794Z,15.19
2018-03-07T17:54:06.730Z,15.39
2018-03-07T17:56:34.724Z,15.37
2018-03-07T17:59:02.669Z,14.57
2018-03-07T18:01:30.566Z,14.89
2018-03-07T18:03:58.461Z,15.39
2018-03-07T18:06:26.478Z,14.86
2018-03-07T18:08:54.512Z,14.83
2018-03-07T18:11:22.439Z,14.99
2018-03-07T18:13:50.353Z,15.15
2018-03-07T18:16:18.363Z,14.69
2018-03-07T18:18:46.192Z,14.77
2018-03-07T18:21:14.183Z,14.41
2018-03-07T18:23:42.169Z,14.26
2018-03-07T18:26:10.097Z,14.14
2018-03-07T18:28:38.035Z,14.65
2018-03-07T18:31:06.022Z,14.58
2018-03-07T18:33:33.970Z,14.67
2018-03-07T18:36:01.902Z,15.01
2018-03-07T18:38:29.849Z,14.99
2018-03-07T18:40:57.761Z,15.00
2018-03-07T18:43:25.693Z,15.39
2018-03-07T18:45:53.633Z,15.48
2018-03-07T18:48:21.624Z,15.61
2018-03-07T18:50:49.528Z,15.71
2018-03-07T18:53:17.973Z,15.24
2018-03-07T18:55:45.862Z,15.19
2018-03-07T18:58:13.801Z,15.45
2018-03-07T19:00:41.790Z,15.57
2018-03-07T19:03:09.722Z,15.60
2018-03-07T19:05:37.649Z,15.53
2018-03-07T19:08:08.459Z,15.17
2018-03-07T19:10:36.418Z,14.54
2018-03-07T19:13:04.346Z,14.06
2018-03-07T19:15:32.302Z,14.22
2018-03-07T19:18:00.270Z,14.07
2018-03-07T19:20:28.224Z,14.23
2018-03-07T19:22:56.186Z,14.30
2018-03-07T19:25:24.215Z,14.18
2018-03-07T19:27:52.169Z,14.45
2018-03-07T19:30:20.090Z,14.60
2018-03-07T19:32:48.394Z,14.78
2018-03-07T19:35:16.368Z,14.26
2018-03-07T19:37:45.325Z,14.47
2018-03-07T19:40:13.322Z,14.51
2018-03-07T19:42:41.283Z,14.53
2018-03-07T19:45:09.274Z,14.57
2018-03-07T19:47:37.214Z,14.55
2018-03-07T19:50:05.243Z,14.40
2018-03-07T19:52:33.173Z,14.44
2018-03-07T19:55:01.301Z,14.53
2018-03-07T19:57:30.387Z,14.57
2018-03-07T19:59:58.520Z,14.54
2018-03-07T20:02:26.497Z,14.52
2018-03-07T20:04:54.404Z,14.47
2018-03-07T20:07:22.414Z,14.40
2018-03-07T20:09:50.410Z,14.43
2018-03-07T20:12:18.331Z,14.05
2018-03-07T20:14:46.241Z,13.24
2018-03-07T20:17:14.157Z,13.76
2018-03-07T20:19:42.169Z,13.92
2018-03-07T20:22:10.126Z,13.70
2018-03-07T20:24:38.061Z,13.95
2018-03-07T20:27:06.048Z,13.97
2018-03-07T20:29:33.973Z,14.10
2018-03-07T20:32:01.884Z,14.00
2018-03-07T20:34:29.808Z,14.17
2018-03-07T20:36:57.745Z,14.24
2018-03-07T20:39:25.669Z,14.05
2018-03-07T20:41:53.645Z,14.03
2018-03-07T20:44:21.597Z,14.06
2018-03-07T20:46:49.521Z,14.09
2018-03-07T20:49:17.489Z,13.72
2018-03-07T20:51:45.529Z,13.91
2018-03-07T20:54:13.496Z,14.02
2018-03-07T20:56:41.573Z,14.01
2018-03-07T20:59:09.464Z,14.03
2018-03-07T21:01:37.417Z,14.01
2018-03-07T21:04:05.344Z,13.57
2018-03-07T21:06:33.389Z,13.51
2018-03-07T21:09:01.321Z,13.53
2018-03-07T21:11:29.328Z,13.54
2018-03-07T21:13:57.240Z,13.73
2018-03-07T21:16:25.197Z,13.72
2018-03-07T21:18:53.151Z,13.46
2018-03-07T21:21:21.123Z,13.18
2018-03-07T21:23:49.060Z,13.50
2018-03-07T21:26:16.976Z,13.75
2018-03-07T21:28:44.894Z,13.59
2018-03-07T21:31:12.898Z,13.86
2018-03-07T21:33:40.841Z,13.88
2018-03-07T21:36:08.845Z,13.94
2018-03-07T21:38:36.814Z,13.95
2018-03-07T21:41:04.856Z,13.91
2018-03-07T21:43:32.769Z,13.82
2018-03-07T21:46:00.705Z,13.75
2018-03-07T21:48:28.578Z,13.51
2018-03-07T21:50:56.482Z,13.13
2018-03-07T21:53:24.482Z,13.38
2018-03-07T21:55:52.483Z,13.50
2018-03-07T21:58:20.840Z,13.44
2018-03-07T22:00:48.774Z,13.55
2018-03-07T22:03:16.806Z,13.60
2018-03-07T22:05:44.805Z,13.54
2018-03-07T22:08:12.793Z,13.44
2018-03-07T22:10:40.750Z,13.63
2018-03-07T22:13:08.798Z,13.33
2018-03-07T22:15:36.801Z,13.40
2018-03-07T22:18:04.806Z,13.57
2018-03-07T22:20:32.750Z,13.69
2018-03-07T22:23:00.823Z,13.52
2018-03-07T22:25:28.784Z,12.89
2018-03-07T22:27:56.676Z,12.95
2018-03-07T22:30:24.569Z,13.38
2018-03-07T22:32:52.456Z,13.41
2018-03-07T22:35:20.416Z,13.52
2018-03-07T22:37:48.323Z,13.55
2018-03-07T22:40:16.306Z,13.49
2018-03-07T22:42:44.273Z,13.28
2018-03-07T22:45:12.224Z,13.42
2018-03-07T22:47:40.177Z,13.27
2018-03-07T22:50:08.095Z,12.26
2018-03-07T22:52:36.035Z,12.09
2018-03-07T22:55:03.997Z,12.72
2018-03-07T22:57:31.949Z,12.78
2018-03-07T23:00:00.252Z,12.98
2018-03-07T23:02:28.206Z,13.13
2018-03-07T23:04:56.180Z,13.12
2018-03-07T23:07:24.151Z,13.13
2018-03-07T23:09:52.116Z,13.08
2018-03-07T23:12:20.117Z,12.56
2018-03-07T23:14:48.154Z,12.34
2018-03-07T23:17:16.081Z,12.68
2018-03-07T23:19:44.066Z,12.96
2018-03-07T23:22:12.031Z,13.04
2018-03-07T23:24:39.928Z,12.84
2018-03-07T23:27:07.885Z,12.92
2018-03-07T23:29:35.817Z,13.04
2018-03-07T23:32:03.716Z,13.10
2018-03-07T23:34:31.621Z,13.16
2018-03-07T23:36:59.540Z,13.22
2018-03-07T23:39:27.449Z,13.21
2018-03-07T23:41:55.454Z,13.16
2018-03-07T23:44:23.442Z,13.05
2018-03-07T23:46:51.413Z,13.10
2018-03-07T23:49:19.317Z,12.99
2018-03-07T23:51:47.269Z,13.00
2018-03-07T23:54:15.252Z,13.07
2018-03-07T23:56:43.157Z,13.09
2018-03-07T23:59:11.065Z,13.08
